Time;durP1;ratioP1;P1;durP2;ratioP2;P2;SDS_P1;SDS_P2;PMS_P1;PMS_P2;Temp;Humidity;BMP_temperature;BMP_pressure;BME280_temperature;BME280_humidity;BME280_pressure;Samples;Min_cycle;Max_cycle;Signal;HPM_P1;HPM_P2
2022/11/18 00:00:01;;;;;;;23.63;10.85;;;;;;;11.67;79.10;98494.94;10189276;29;20075;-67
2022/11/18 00:05:03;;;;;;;18.65;10.95;;;;;;;11.71;79.12;98506.88;10185108;29;20461;-66
2022/11/18 00:10:04;;;;;;;17.42;9.90;;;;;;;11.48;79.64;98507.63;10186325;29;20082;-67
2022/11/18 00:15:06;;;;;;;11.88;8.50;;;;;;;11.44;79.78;98500.22;10187002;29;20621;-67
2022/11/18 00:20:07;;;;;;;18.25;8.90;;;;;;;11.60;79.30;98498.78;10186907;28;20064;-65
2022/11/18 00:25:09;;;;;;;16.63;8.73;;;;;;;11.69;79.13;98500.09;10189685;29;20630;-67
2022/11/18 00:30:10;;;;;;;20.35;9.65;;;;;;;11.76;79.07;98489.22;10186540;29;20447;-66
2022/11/18 00:35:12;;;;;;;19.10;10.70;;;;;;;11.79;79.12;98494.13;10187167;29;20059;-66
2022/11/18 00:40:13;;;;;;;17.80;9.48;;;;;;;11.83;79.18;98490.78;10188283;29;20708;-66
2022/11/18 00:45:15;;;;;;;20.75;10.38;;;;;;;11.87;79.18;98488.44;10167471;29;20502;-66
2022/11/18 00:50:16;;;;;;;19.60;10.63;;;;;;;11.91;78.90;98503.13;10177182;29;20055;-66
2022/11/18 00:55:18;;;;;;;21.85;10.30;;;;;;;11.93;79.04;98487.56;10189852;28;20155;-65
2022/11/18 01:00:19;;;;;;;18.80;9.48;;;;;;;11.98;79.13;98494.94;10182964;29;20103;-66
2022/11/18 01:05:21;;;;;;;17.63;9.05;;;;;;;11.99;78.95;98502.78;10183747;29;20083;-65
2022/11/18 01:10:22;;;;;;;15.73;8.82;;;;;;;12.03;78.53;98511.22;10194123;29;20086;-66
2022/11/18 01:15:23;;;;;;;16.38;9.13;;;;;;;12.05;78.96;98512.63;10188264;29;20072;-66
2022/11/18 01:20:25;;;;;;;16.30;9.15;;;;;;;12.10;78.64;98520.00;10184839;29;20052;-66
2022/11/18 01:25:27;;;;;;;16.08;8.85;;;;;;;12.09;78.35;98527.28;10191015;29;20055;-66
2022/11/18 01:30:28;;;;;;;19.42;9.95;;;;;;;12.11;78.86;98524.34;10190633;29;20138;-66
2022/11/18 01:35:35;;;;;;;18.50;9.10;;;;;;;12.09;78.74;98538.03;10180660;29;20142;-66
2022/11/18 01:40:37;;;;;;;23.95;9.57;;;;;;;12.08;78.42;98532.88;10183156;29;20127;-66
2022/11/18 01:45:41;;;;;;;21.08;9.85;;;;;;;12.04;78.92;98537.09;10176661;29;20126;-66
2022/11/18 01:50:46;;;;;;;25.17;9.75;;;;;;;12.05;78.73;98541.44;10186527;29;20116;-66
2022/11/18 01:55:50;;;;;;;22.15;10.73;;;;;;;12.07;78.26;98548.22;10179806;28;20131;-66
2022/11/18 02:00:53;;;;;;;21.60;10.60;;;;;;;12.12;78.58;98538.63;10181827;29;20454;-67
2022/11/18 02:05:54;;;;;;;27.40;13.50;;;;;;;12.12;78.41;98539.44;10190246;29;20043;-67
2022/11/18 02:10:56;;;;;;;23.63;12.50;;;;;;;12.15;78.26;98538.19;10187304;29;20142;-67
2022/11/18 02:16:10;;;;;;;31.60;14.77;;;;;;;12.16;78.85;98537.13;10188538;29;20063;-66
2022/11/18 02:21:40;;;;;;;30.20;13.25;;;;;;;12.20;78.58;98546.38;10187062;29;20146;-66
2022/11/18 02:27:01;;;;;;;29.67;11.88;;;;;;;12.14;79.01;98547.31;10180083;29;20107;-66
2022/11/18 02:32:23;;;;;;;35.10;13.60;;;;;;;12.07;78.66;98545.53;10180288;29;20058;-66
2022/11/18 02:37:37;;;;;;;41.13;13.65;;;;;;;12.09;78.68;98551.50;10180414;29;20127;-66
2022/11/18 02:42:43;;;;;;;33.67;13.10;;;;;;;12.14;78.78;98541.91;10164605;29;20071;-66
2022/11/18 02:47:47;;;;;;;44.05;14.35;;;;;;;12.16;78.63;98554.09;10181103;29;20669;-66
2022/11/18 02:52:53;;;;;;;44.00;14.40;;;;;;;12.13;78.67;98551.06;10184731;29;20047;-66
2022/11/18 02:57:56;;;;;;;48.88;14.73;;;;;;;12.13;79.21;98559.16;10197277;29;20111;-66
2022/11/18 03:02:59;;;;;;;60.08;18.02;;;;;;;12.07;79.19;98555.50;10212455;29;20052;-66
2022/11/18 03:08:09;;;;;;;67.28;18.25;;;;;;;12.03;79.56;98557.00;10210383;29;20048;-66
2022/11/18 03:13:21;;;;;;;70.90;17.67;;;;;;;11.97;80.05;98557.94;10222320;29;20048;-66
2022/11/18 03:18:52;;;;;;;78.78;18.73;;;;;;;11.98;79.79;98568.44;10216200;29;20052;-66
2022/11/18 03:24:08;;;;;;;67.78;18.48;;;;;;;12.02;79.88;98556.16;10221830;29;20431;-65
2022/11/18 03:29:31;;;;;;;81.70;19.65;;;;;;;12.15;79.20;98562.44;10222629;29;20500;-66
2022/11/18 03:34:48;;;;;;;67.38;18.65;;;;;;;12.23;79.17;98576.38;10221948;29;20306;-65
2022/11/18 03:39:54;;;;;;;76.93;19.10;;;;;;;12.15;79.56;98586.66;10219807;29;20048;-65
2022/11/18 03:45:02;;;;;;;80.10;20.67;;;;;;;12.15;79.41;98597.44;10226521;29;20584;-66
2022/11/18 03:50:16;;;;;;;82.28;19.90;;;;;;;12.18;79.55;98602.34;10204929;29;20048;-66
2022/11/18 03:55:23;;;;;;;74.60;19.10;;;;;;;12.22;80.20;98612.47;10218838;29;20047;-65
2022/11/18 04:00:28;;;;;;;83.72;20.30;;;;;;;12.21;80.01;98610.00;10214694;29;20055;-66
2022/11/18 04:05:37;;;;;;;77.50;19.67;;;;;;;12.23;79.88;98610.59;10190759;29;20086;-65
2022/11/18 04:10:51;;;;;;;78.93;20.40;;;;;;;12.22;79.61;98612.47;10189228;29;20119;-66
2022/11/18 04:15:53;;;;;;;83.00;21.05;;;;;;;12.24;79.49;98612.22;10189101;29;20543;-66
2022/11/18 04:20:54;;;;;;;70.15;19.65;;;;;;;12.17;79.78;98616.88;10178781;29;20135;-66
2022/11/18 04:25:56;;;;;;;72.53;19.23;;;;;;;12.18;80.11;98626.59;10184876;29;20075;-65
2022/11/18 04:30:57;;;;;;;71.10;19.27;;;;;;;12.10;80.03;98622.34;10190576;29;20629;-65
2022/11/18 04:35:58;;;;;;;68.68;18.67;;;;;;;12.07;80.26;98625.53;10203801;29;20043;-65
2022/11/18 04:41:00;;;;;;;69.10;18.10;;;;;;;12.10;79.85;98635.81;10200305;29;20044;-65
2022/11/18 04:46:01;;;;;;;70.80;19.45;;;;;;;12.14;79.55;98628.09;10175198;29;20079;-65
2022/11/18 04:51:03;;;;;;;71.78;20.13;;;;;;;12.14;80.04;98636.19;10201031;29;20071;-66
2022/11/18 04:56:06;;;;;;;60.35;18.05;;;;;;;12.16;79.49;98637.59;10193669;29;20474;-66
2022/11/18 05:01:07;;;;;;;65.88;18.77;;;;;;;12.14;79.85;98636.19;10187655;29;20075;-65
2022/11/18 05:06:09;;;;;;;63.72;17.38;;;;;;;12.07;79.93;98645.19;10195224;29;20053;-66
2022/11/18 05:16:31;;;;;;;57.22;18.25;;;;;;;12.07;80.29;98652.44;10195572;29;20499;-66
2022/11/18 05:21:32;;;;;;;53.42;17.05;;;;;;;12.03;80.10;98652.06;10194260;29;20135;-65
2022/11/18 05:26:34;;;;;;;62.90;18.35;;;;;;;12.12;79.98;98657.16;10199638;29;20074;-66
2022/11/18 05:31:35;;;;;;;64.75;17.40;;;;;;;12.16;79.84;98669.91;10187637;29;20133;-65
2022/11/18 05:36:36;;;;;;;72.43;18.52;;;;;;;12.14;79.53;98672.03;10182785;29;20139;-65
2022/11/18 05:46:59;;;;;;;55.13;16.10;;;;;;;12.23;79.43;98681.44;10183894;29;20551;-65
2022/11/18 05:52:01;;;;;;;58.95;16.67;;;;;;;12.24;79.52;98688.47;10190344;29;20076;-65
2022/11/18 05:57:02;;;;;;;58.25;15.02;;;;;;;12.24;79.50;98688.47;10195298;29;20512;-66
2022/11/18 06:02:29;;;;;;;51.85;16.05;;;;;;;12.28;79.21;98703.16;10213810;28;20044;-64
2022/11/18 06:07:38;;;;;;;54.22;17.00;;;;;;;12.22;79.09;98705.91;10219561;29;20043;-65
2022/11/18 06:12:44;;;;;;;52.22;14.65;;;;;;;12.17;79.75;98711.16;10206825;29;20051;-66
2022/11/18 06:18:01;;;;;;;56.08;15.18;;;;;;;11.98;79.82;98729.22;10183638;29;20138;-66
2022/11/18 06:23:02;;;;;;;52.78;16.10;;;;;;;11.81;80.91;98735.16;10184123;29;20080;-67
2022/11/18 06:28:04;;;;;;;55.53;15.02;;;;;;;11.82;80.50;98747.56;10173372;29;20105;-66
2022/11/18 06:33:05;;;;;;;51.13;14.65;;;;;;;11.79;80.92;98744.50;10191276;29;20082;-66
2022/11/18 06:38:07;;;;;;;48.55;14.68;;;;;;;11.83;80.84;98754.63;10184413;29;20126;-66
2022/11/18 06:48:31;;;;;;;56.78;15.38;;;;;;;11.97;80.67;98778.75;10194754;29;20130;-66
2022/11/18 06:53:33;;;;;;;45.75;14.18;;;;;;;12.07;80.47;98785.25;10261500;23;20040;-90
2022/11/18 06:58:35;;;;;;;50.97;13.95;;;;;;;12.09;80.15;98790.41;10220107;28;20084;-88
2022/11/18 07:03:38;;;;;;;41.50;13.68;;;;;;;12.08;80.94;98786.91;10251900;29;20091;-90
2022/11/18 07:08:41;;;;;;;40.42;13.07;;;;;;;12.03;80.76;98796.69;10216835;28;20055;-89
2022/11/18 07:13:44;;;;;;;33.88;12.18;;;;;;;12.04;81.15;98798.31;10245451;29;20099;-89
2022/11/18 07:18:47;;;;;;;31.35;11.18;;;;;;;12.09;80.91;98807.38;10226281;28;20043;-89
2022/11/18 07:23:49;;;;;;;29.13;10.85;;;;;;;12.07;80.84;98816.75;10236197;29;20062;-89
2022/11/18 07:28:52;;;;;;;23.77;8.93;;;;;;;11.95;81.03;98818.50;10244687;28;20035;-89
2022/11/18 07:33:54;;;;;;;21.38;10.07;;;;;;;11.88;80.90;98830.13;10248846;28;20067;-89
2022/11/18 07:39:00;;;;;;;24.50;10.32;;;;;;;11.81;80.57;98840.16;10242142;28;20043;-88
2022/11/18 07:44:03;;;;;;;35.08;10.50;;;;;;;11.78;80.88;98847.84;10236259;28;20060;-89
2022/11/18 07:49:09;;;;;;;23.55;9.85;;;;;;;11.79;80.85;98847.63;10222297;28;20052;-90
2022/11/18 07:54:13;;;;;;;27.15;11.20;;;;;;;11.69;81.44;98853.53;10241607;29;20059;-90
2022/11/18 07:59:14;;;;;;;28.23;10.82;;;;;;;11.74;80.74;98854.72;10231757;28;20075;-89
2022/11/18 08:04:17;;;;;;;22.52;10.45;;;;;;;11.67;81.34;98870.91;10232467;28;20075;-89
2022/11/18 08:09:18;;;;;;;26.48;11.40;;;;;;;11.73;80.70;98878.13;10220951;28;20054;-91
2022/11/18 08:14:22;;;;;;;27.63;10.82;;;;;;;11.75;80.78;98885.97;10216078;29;20088;-88
2022/11/18 08:19:24;;;;;;;28.65;11.40;;;;;;;11.65;81.24;98890.00;10208459;28;20059;-89
2022/11/18 08:24:26;;;;;;;27.52;11.07;;;;;;;11.75;81.02;98902.13;10213846;29;20558;-88
2022/11/18 08:29:27;;;;;;;25.38;12.52;;;;;;;11.69;81.56;98893.91;10216736;28;20054;-89
2022/11/18 08:34:29;;;;;;;25.40;10.90;;;;;;;11.75;81.53;98899.44;10204509;28;20079;-88
2022/11/18 08:39:31;;;;;;;29.10;12.43;;;;;;;11.70;81.27;98903.59;10228121;28;20046;-88
2022/11/18 08:44:33;;;;;;;34.20;12.93;;;;;;;11.55;81.49;98897.72;10238648;29;20052;-89
2022/11/18 08:49:35;;;;;;;30.85;11.48;;;;;;;11.60;81.79;98902.47;10206430;29;20064;-89
2022/11/18 08:54:37;;;;;;;27.80;11.82;;;;;;;11.71;81.48;98899.88;10224999;28;20111;-89
2022/11/18 08:59:39;;;;;;;28.33;11.30;;;;;;;11.67;81.75;98912.13;10219298;28;20052;-89
2022/11/18 09:04:40;;;;;;;29.38;12.15;;;;;;;11.65;81.84;98916.06;10218134;29;20051;-88
2022/11/18 09:09:42;;;;;;;23.23;11.20;;;;;;;11.62;81.93;98925.41;10181763;23;20108;-64
2022/11/18 09:14:44;;;;;;;27.92;11.63;;;;;;;11.64;81.80;98928.72;10169913;29;20044;-63
2022/11/18 09:20:06;;;;;;;24.27;10.88;;;;;;;11.71;81.84;98926.81;10168890;29;20055;-65
2022/11/18 09:25:08;;;;;;;29.48;10.88;;;;;;;11.85;81.62;98935.59;10167725;29;20131;-63
2022/11/18 09:30:10;;;;;;;31.13;12.27;;;;;;;11.96;81.71;98939.47;10163209;29;20467;-66
2022/11/18 09:35:11;;;;;;;28.98;10.63;;;;;;;11.97;81.95;98946.53;10164857;29;20052;-63
2022/11/18 09:40:17;;;;;;;23.23;10.60;;;;;;;12.05;81.85;98951.63;10164574;29;20079;-64
2022/11/18 09:45:29;;;;;;;26.00;10.15;;;;;;;12.07;82.22;98957.63;10164135;29;20095;-67
2022/11/18 09:50:31;;;;;;;23.88;9.07;;;;;;;12.06;82.04;98961.34;10159166;29;20059;-68
2022/11/18 09:55:52;;;;;;;18.67;8.73;;;;;;;12.21;81.99;98962.91;10165308;29;20127;-63
2022/11/18 10:00:54;;;;;;;19.23;9.57;;;;;;;12.25;82.05;98961.41;10161721;29;20168;-65
2022/11/18 10:06:08;;;;;;;19.88;9.65;;;;;;;12.40;81.88;98969.97;10162832;29;20424;-64
2022/11/18 10:11:19;;;;;;;17.73;9.20;;;;;;;12.56;81.38;98968.56;10164619;29;20098;-65
2022/11/18 10:16:51;;;;;;;7.20;4.50;;;;;;;12.41;81.61;98968.91;10165114;29;20068;-62
2022/11/18 10:22:20;;;;;;;11.80;5.57;;;;;;;12.24;82.16;98973.22;10163725;29;20052;-62
2022/11/18 10:27:33;;;;;;;11.43;4.78;;;;;;;12.32;81.76;98972.94;10163783;29;20044;-65
2022/11/18 10:33:01;;;;;;;10.43;5.30;;;;;;;12.40;81.63;98972.66;10164484;29;20466;-63
2022/11/18 10:38:12;;;;;;;12.05;5.60;;;;;;;12.48;81.34;98990.44;10165491;29;20052;-63
2022/11/18 10:43:44;;;;;;;10.48;6.15;;;;;;;12.59;81.26;98992.38;10165907;29;20120;-62
2022/11/18 10:48:46;;;;;;;12.10;6.30;;;;;;;12.53;81.72;98989.75;10166315;29;20127;-63
2022/11/18 10:53:47;;;;;;;11.60;6.65;;;;;;;12.44;81.14;98998.13;10165693;29;20051;-62
2022/11/18 10:58:50;;;;;;;10.30;6.50;;;;;;;12.46;80.92;99001.44;10164553;29;20115;-65
2022/11/18 11:03:54;;;;;;;7.93;5.63;;;;;;;12.42;81.22;99005.63;10166033;29;20076;-64
2022/11/18 11:09:27;;;;;;;13.20;6.25;;;;;;;12.44;81.23;99003.53;10164554;29;20052;-66
2022/11/18 11:14:34;;;;;;;10.13;5.47;;;;;;;12.43;81.30;99007.25;10133571;29;20443;-63
2022/11/18 11:19:50;;;;;;;10.82;5.55;;;;;;;12.39;80.73;99013.31;10161947;29;20528;-63
2022/11/18 11:24:52;;;;;;;13.52;4.75;;;;;;;12.36;81.32;99014.59;10164952;29;20052;-63
2022/11/18 11:30:15;;;;;;;10.10;4.35;;;;;;;12.34;81.25;99013.13;10163502;29;20119;-62
2022/11/18 11:35:22;;;;;;;9.13;5.50;;;;;;;12.41;80.66;99016.59;10173127;29;20048;-64
2022/11/18 11:40:33;;;;;;;7.10;4.07;;;;;;;12.39;80.99;99030.28;10171535;29;20111;-61
2022/11/18 11:45:46;;;;;;;9.18;5.32;;;;;;;12.24;81.18;99025.25;10169998;29;20048;-64
2022/11/18 11:50:59;;;;;;;6.65;4.03;;;;;;;12.20;81.30;99025.88;10169152;29;20122;-65
2022/11/18 11:56:17;;;;;;;6.82;3.65;;;;;;;12.13;81.71;99041.28;10148571;29;20044;-65
2022/11/18 12:01:48;;;;;;;7.85;3.92;;;;;;;12.14;81.49;99038.38;10164628;29;20082;-64
2022/11/18 12:06:52;;;;;;;7.28;3.97;;;;;;;12.07;81.67;99030.34;10167090;29;20075;-67
2022/11/18 12:12:33;;;;;;;7.72;4.15;;;;;;;12.12;81.77;99034.25;10168761;29;20043;-62
2022/11/18 12:17:45;;;;;;;11.18;4.50;;;;;;;12.10;82.27;99034.44;10162286;29;20052;-62
2022/11/18 12:23:10;;;;;;;6.20;3.40;;;;;;;12.18;81.84;99038.75;10164938;29;20123;-62
2022/11/18 12:28:29;;;;;;;8.55;3.95;;;;;;;12.17;81.96;99040.63;10167727;29;20223;-64
2022/11/18 12:33:31;;;;;;;8.27;4.03;;;;;;;12.25;81.79;99036.84;10191410;29;20032;-66
2022/11/18 12:38:32;;;;;;;7.95;4.07;;;;;;;12.34;81.73;99048.97;10209047;29;20068;-66
2022/11/18 12:44:04;;;;;;;6.60;2.97;;;;;;;12.42;81.93;99037.94;10175179;29;20044;-65
2022/11/18 12:49:21;;;;;;;7.63;3.22;;;;;;;12.33;81.50;99043.84;10191687;29;20044;-66
2022/11/18 12:54:28;;;;;;;6.60;3.28;;;;;;;12.43;81.83;99038.78;10214983;29;20052;-66
2022/11/18 12:59:35;;;;;;;5.70;2.28;;;;;;;12.45;81.61;99050.16;10191578;29;20499;-68
2022/11/18 13:04:39;;;;;;;2.05;1.00;;;;;;;12.32;81.47;99042.97;10185543;29;20032;-66
2022/11/18 13:09:47;;;;;;;3.58;1.00;;;;;;;12.19;81.75;99053.88;10205230;29;20110;-68
2022/11/18 13:20:36;;;;;;;2.92;0.43;;;;;;;12.09;81.33;99052.50;10185923;29;20103;-67
2022/11/18 13:25:38;;;;;;;3.85;0.65;;;;;;;12.26;80.81;99058.19;10183501;29;20354;-67
2022/11/18 13:30:50;;;;;;;6.32;0.85;;;;;;;12.12;80.94;99071.97;10174102;29;20052;-68
2022/11/18 13:35:51;;;;;;;3.88;0.60;;;;;;;12.11;80.94;99060.38;10165482;29;20082;-68
2022/11/18 13:41:07;;;;;;;4.40;0.50;;;;;;;12.06;80.73;99069.06;10166069;29;20135;-69
2022/11/18 13:46:16;;;;;;;4.30;0.52;;;;;;;12.00;80.76;99069.94;10169347;29;20066;-66
2022/11/18 13:51:17;;;;;;;2.05;0.35;;;;;;;12.09;80.74;99071.34;10176166;29;20064;-68
2022/11/18 13:56:21;;;;;;;3.55;1.17;;;;;;;12.35;80.07;99074.09;10166376;29;20511;-68
2022/11/18 14:01:26;;;;;;;2.35;0.35;;;;;;;12.37;80.09;99080.06;10157771;29;20076;-68
2022/11/18 14:06:40;;;;;;;2.08;0.30;;;;;;;12.29;79.50;99081.16;10154495;29;20052;-65
2022/11/18 14:11:45;;;;;;;2.22;0.30;;;;;;;12.34;78.38;99081.31;10162400;29;20055;-66
2022/11/18 14:16:46;;;;;;;2.22;0.20;;;;;;;12.33;78.16;99087.75;10187440;29;20051;-70
2022/11/18 14:21:48;;;;;;;2.25;0.20;;;;;;;12.25;78.22;99083.47;10200131;29;20385;-65
2022/11/18 14:26:49;;;;;;;0.75;0.15;;;;;;;12.20;77.94;99082.47;10199594;29;20043;-66
2022/11/18 14:32:13;;;;;;;1.25;0.10;;;;;;;12.29;77.00;99086.56;10178888;29;20063;-67
2022/11/18 14:37:15;;;;;;;0.85;0.30;;;;;;;12.47;77.22;99097.38;10182388;29;20035;-68
2022/11/18 14:42:16;;;;;;;2.85;0.65;;;;;;;12.52;76.57;99101.28;10155572;29;20048;-69
2022/11/18 14:47:27;;;;;;;0.68;0.20;;;;;;;12.55;75.91;99099.00;10175716;29;20531;-68
2022/11/18 14:52:28;;;;;;;2.28;0.30;;;;;;;12.55;76.16;99104.38;10149663;29;20090;-67
2022/11/18 14:57:30;;;;;;;1.65;0.30;;;;;;;12.48;76.09;99109.03;10168075;29;20423;-67
2022/11/18 15:02:31;;;;;;;4.20;0.80;;;;;;;12.51;76.18;99113.97;10168351;29;20080;-68
2022/11/18 15:07:33;;;;;;;4.40;0.63;;;;;;;12.55;76.35;99125.13;10166228;29;20044;-67
2022/11/18 15:12:34;;;;;;;3.10;0.80;;;;;;;12.45;76.49;99121.03;10154864;29;20059;-66
2022/11/18 15:17:36;;;;;;;5.90;1.20;;;;;;;12.43;76.73;99119.63;10182276;29;20036;-67
2022/11/18 15:22:37;;;;;;;3.80;1.50;;;;;;;12.46;76.52;99124.56;10138321;29;20139;-66
2022/11/18 15:27:39;;;;;;;5.78;1.35;;;;;;;12.42;76.64;99131.44;10149904;29;20144;-68
2022/11/18 15:32:41;;;;;;;5.13;1.60;;;;;;;12.36;76.33;99116.13;10141333;29;20084;-68
2022/11/18 15:37:42;;;;;;;7.50;1.80;;;;;;;12.20;76.55;99122.88;10145253;29;20392;-66
2022/11/18 15:42:43;;;;;;;5.28;2.58;;;;;;;12.00;76.91;99133.78;10134297;29;20046;-66
2022/11/18 15:47:52;;;;;;;7.63;1.48;;;;;;;11.79;77.37;99140.25;10141118;29;20036;-65
2022/11/18 15:52:54;;;;;;;5.30;1.85;;;;;;;11.70;77.38;99140.50;10131916;29;20112;-67
2022/11/18 15:57:56;;;;;;;4.57;0.80;;;;;;;11.57;77.31;99154.03;10145650;29;20067;-67
2022/11/18 16:02:57;;;;;;;6.18;1.00;;;;;;;11.55;77.14;99160.63;10149688;29;20119;-67
2022/11/18 16:07:58;;;;;;;7.70;2.22;;;;;;;11.49;77.39;99160.47;10160758;29;20051;-69
2022/11/18 16:13:00;;;;;;;5.78;2.50;;;;;;;11.43;77.02;99172.06;10152965;29;20072;-67
2022/11/18 16:18:02;;;;;;;15.35;3.65;;;;;;;11.35;76.53;99169.59;10153952;29;20539;-69
2022/11/18 16:23:04;;;;;;;15.50;5.93;;;;;;;11.25;76.54;99177.25;10164774;29;20092;-67
2022/11/18 16:28:05;;;;;;;10.88;3.53;;;;;;;11.13;76.70;99181.63;10168368;29;20052;-67
2022/11/18 16:33:26;;;;;;;5.47;2.65;;;;;;;10.95;76.76;99182.25;10156763;29;20076;-67
2022/11/18 16:38:28;;;;;;;21.80;5.80;;;;;;;10.83;76.94;99182.88;10164377;29;20111;-67
2022/11/18 16:43:29;;;;;;;15.48;5.78;;;;;;;10.68;77.16;99196.53;10165622;29;20056;-67
2022/11/18 16:48:30;;;;;;;21.30;7.85;;;;;;;10.61;77.17;99201.06;10166129;29;20147;-66
2022/11/18 16:53:32;;;;;;;18.15;8.95;;;;;;;10.57;77.43;99204.38;10165954;29;20131;-66
2022/11/18 16:58:33;;;;;;;31.80;17.33;;;;;;;10.34;77.53;99216.28;10166335;29;20072;-66
2022/11/18 17:03:35;;;;;;;18.20;10.10;;;;;;;10.26;77.89;99221.81;10168094;29;20139;-65
2022/11/18 17:08:36;;;;;;;14.98;7.85;;;;;;;10.21;77.82;99235.00;10158170;29;20135;-66
2022/11/18 17:13:39;;;;;;;17.45;8.95;;;;;;;10.21;77.84;99235.84;10163462;29;20130;-66
2022/11/18 17:18:41;;;;;;;13.27;6.53;;;;;;;10.15;78.14;99238.50;10155992;29;20091;-65
2022/11/18 17:23:44;;;;;;;12.32;5.32;;;;;;;10.13;78.32;99238.72;10168725;29;20116;-65
2022/11/18 17:28:46;;;;;;;9.82;3.50;;;;;;;10.08;78.39;99246.53;10158432;29;20146;-65
2022/11/18 17:33:49;;;;;;;14.38;5.05;;;;;;;10.17;78.23;99234.59;10164848;29;20048;-65
2022/11/18 17:38:53;;;;;;;12.90;5.55;;;;;;;10.20;77.92;99230.69;10170040;29;20048;-67
2022/11/18 17:43:54;;;;;;;20.70;10.75;;;;;;;10.13;78.16;99231.50;10156918;29;20070;-66
2022/11/18 17:48:57;;;;;;;18.73;8.52;;;;;;;10.09;78.18;99235.59;10142214;29;20082;-65
2022/11/18 17:53:59;;;;;;;20.27;8.52;;;;;;;10.11;78.33;99235.38;10160660;29;20122;-66
2022/11/18 17:59:00;;;;;;;19.05;9.57;;;;;;;10.08;78.38;99239.31;10162989;29;20142;-64
2022/11/18 18:04:02;;;;;;;18.40;8.00;;;;;;;10.10;78.05;99249.84;10162292;29;20071;-64
2022/11/18 18:09:03;;;;;;;18.88;9.10;;;;;;;10.10;78.32;99247.16;10162575;29;20388;-65
2022/11/18 18:14:13;;;;;;;28.33;16.38;;;;;;;10.06;78.35;99259.34;10163293;29;20454;-64
2022/11/18 18:19:20;;;;;;;30.33;15.93;;;;;;;9.96;78.33;99248.97;10155594;29;20072;-65
2022/11/18 18:24:22;;;;;;;31.13;16.50;;;;;;;9.98;78.16;99262.19;10164080;29;20073;-65
2022/11/18 18:29:24;;;;;;;27.90;14.13;;;;;;;9.98;78.04;99264.88;10163046;29;20412;-68
2022/11/18 18:34:26;;;;;;;23.90;13.77;;;;;;;9.96;78.14;99262.38;10161335;29;20640;-65
2022/11/18 18:39:27;;;;;;;40.40;21.80;;;;;;;9.92;78.10;99261.94;10161295;29;20140;-66
2022/11/18 18:46:27;;;;;;;36.85;19.92;;;;;;;9.94;78.18;99267.13;10169443;29;20622;-66
2022/11/18 18:49:50;;;;;;;19.75;10.95;;;;;;;9.95;78.16;99270.63;10169385;29;20139;-66
2022/11/18 18:54:51;;;;;;;16.98;10.50;;;;;;;9.92;78.27;99264.63;10171056;29;20147;-66
2022/11/18 18:59:52;;;;;;;20.40;10.02;;;;;;;9.87;78.17;99274.31;10171330;29;20044;-66
2022/11/18 19:04:54;;;;;;;20.08;11.65;;;;;;;9.87;78.37;99274.31;10167225;29;20080;-66
2022/11/18 19:09:55;;;;;;;27.13;14.55;;;;;;;9.87;78.56;99275.16;10206949;29;20028;-63
2022/11/18 19:14:57;;;;;;;20.58;12.35;;;;;;;9.83;78.47;99279.25;10217175;29;20043;-63
2022/11/18 19:25:18;;;;;;;19.05;8.00;;;;;;;9.91;78.27;99281.78;10166659;29;20048;-65
2022/11/18 19:30:19;;;;;;;18.30;6.35;;;;;;;9.92;78.17;99288.81;10159393;29;20052;-67
2022/11/18 19:35:21;;;;;;;12.63;6.93;;;;;;;9.87;78.41;99295.78;10166432;29;20415;-66
2022/11/18 19:40:23;;;;;;;14.82;6.57;;;;;;;9.89;78.49;99296.41;10161893;29;20147;-68
2022/11/18 19:45:24;;;;;;;21.92;10.20;;;;;;;9.83;78.60;99313.31;10169685;29;20135;-66
2022/11/18 19:50:26;;;;;;;18.35;9.85;;;;;;;9.87;78.49;99318.09;10168358;29;20082;-66
2022/11/18 19:55:27;;;;;;;18.92;10.27;;;;;;;9.90;78.51;99327.59;10168254;29;20048;-66
2022/11/18 20:00:29;;;;;;;18.13;9.60;;;;;;;9.95;78.68;99327.84;10168339;29;20843;-67
2022/11/18 20:05:51;;;;;;;13.00;6.10;;;;;;;9.98;78.31;99318.56;10168244;29;20523;-66
2022/11/18 20:10:53;;;;;;;12.93;6.53;;;;;;;10.01;78.56;99337.81;10167437;29;20510;-66
2022/11/18 20:16:09;;;;;;;14.00;7.10;;;;;;;10.04;78.54;99341.94;10168573;29;20128;-67
2022/11/18 20:21:18;;;;;;;14.38;7.65;;;;;;;10.05;78.62;99339.06;10170101;29;20462;-67
2022/11/18 20:26:22;;;;;;;21.10;8.85;;;;;;;10.07;78.54;99331.66;10162203;29;20505;-67
2022/11/18 20:31:25;;;;;;;17.63;9.25;;;;;;;10.04;78.70;99339.25;10166838;29;20043;-65
2022/11/18 20:36:32;;;;;;;13.20;7.20;;;;;;;9.95;79.14;99335.88;10167076;28;20138;-68
2022/11/18 20:41:35;;;;;;;16.40;10.13;;;;;;;10.00;79.09;99333.44;10156902;29;20123;-66
2022/11/18 20:46:36;;;;;;;20.40;12.18;;;;;;;10.03;78.86;99335.75;10158058;29;20072;-65
2022/11/18 20:51:37;;;;;;;18.15;10.13;;;;;;;10.00;78.86;99333.44;10157239;29;20076;-66
2022/11/18 20:56:39;;;;;;;14.23;7.65;;;;;;;9.84;79.02;99339.97;10167301;29;20131;-68
2022/11/18 21:01:40;;;;;;;17.80;9.18;;;;;;;9.80;78.88;99340.56;10179369;29;20049;-68
2022/11/18 21:06:42;;;;;;;36.58;14.63;;;;;;;9.82;78.94;99350.06;10149947;29;21208;-65
2022/11/18 21:11:43;;;;;;;25.48;13.70;;;;;;;9.91;78.66;99361.47;10157248;29;20517;-67
2022/11/18 21:16:45;;;;;;;15.35;8.32;;;;;;;9.93;78.76;99357.59;10165097;29;20050;-67
2022/11/18 21:21:53;;;;;;;13.48;9.00;;;;;;;9.92;78.72;99365.81;10166994;29;20083;-67
2022/11/18 21:26:56;;;;;;;16.65;8.82;;;;;;;9.89;79.02;99363.53;10165675;29;20058;-65
2022/11/18 21:32:01;;;;;;;8.18;6.30;;;;;;;9.90;79.07;99366.00;10162545;29;20051;-66
2022/11/18 21:37:04;;;;;;;16.70;9.48;;;;;;;10.01;79.07;99369.16;10164884;29;20058;-67
2022/11/18 21:42:05;;;;;;;15.32;9.55;;;;;;;10.02;79.26;99384.28;10165942;29;20044;-66
2022/11/18 21:47:06;;;;;;;11.13;6.85;;;;;;;9.98;79.70;99397.25;10154151;29;20565;-67
2022/11/18 21:52:08;;;;;;;11.48;6.65;;;;;;;10.05;79.36;99398.13;10158013;29;20064;-66
2022/11/18 21:57:09;;;;;;;12.60;7.07;;;;;;;10.02;79.89;99406.56;10164704;29;20142;-66
2022/11/18 22:02:14;;;;;;;14.88;9.32;;;;;;;9.99;79.92;99408.81;10163253;29;20066;-65
2022/11/18 22:07:15;;;;;;;19.88;9.70;;;;;;;10.00;80.02;99410.50;10168540;29;20048;-68
2022/11/18 22:12:17;;;;;;;15.75;9.77;;;;;;;9.97;80.09;99403.63;10166924;29;20380;-66
2022/11/18 22:17:18;;;;;;;15.95;8.25;;;;;;;9.96;80.01;99411.91;10163673;29;20052;-65
2022/11/18 22:22:20;;;;;;;16.42;8.18;;;;;;;9.99;79.92;99411.50;10163040;29;20135;-66
2022/11/18 22:27:21;;;;;;;9.02;4.35;;;;;;;9.95;79.79;99424.47;10166780;29;20098;-66
2022/11/18 22:32:23;;;;;;;6.90;3.90;;;;;;;9.83;80.00;99431.41;10168609;29;20498;-67
2022/11/18 22:37:25;;;;;;;3.72;2.45;;;;;;;9.67;80.03;99430.66;10164112;29;20062;-67
2022/11/18 22:47:46;;;;;;;4.72;2.35;;;;;;;9.46;79.56;99444.09;10160185;29;20040;-66
2022/11/18 22:52:47;;;;;;;2.72;1.20;;;;;;;9.19;79.38;99464.44;10162048;29;20424;-68
2022/11/18 22:57:48;;;;;;;1.30;0.80;;;;;;;9.05;79.59;99460.75;10164091;29;20048;-65
2022/11/18 23:02:50;;;;;;;2.20;1.58;;;;;;;8.82;79.41;99461.72;10163719;29;20050;-67
2022/11/18 23:07:51;;;;;;;4.55;1.35;;;;;;;8.60;79.30;99476.06;10163613;29;20091;-65
2022/11/18 23:18:12;;;;;;;4.45;2.22;;;;;;;8.27;78.86;99493.28;10164324;29;20058;-66
2022/11/18 23:23:14;;;;;;;4.78;2.47;;;;;;;8.18;79.15;99498.88;10163112;29;20159;-67
2022/11/18 23:28:15;;;;;;;3.95;2.30;;;;;;;7.91;79.56;99499.25;10167805;29;20132;-67
2022/11/18 23:33:16;;;;;;;5.95;2.50;;;;;;;7.94;79.52;99504.25;10169550;29;20040;-66
2022/11/18 23:38:18;;;;;;;3.85;2.75;;;;;;;7.77;79.32;99497.38;10163058;29;20048;-68
2022/11/18 23:43:19;;;;;;;6.20;2.83;;;;;;;7.66;78.98;99501.31;10169567;29;20265;-67
2022/11/18 23:48:22;;;;;;;5.15;3.25;;;;;;;7.72;79.12;99497.06;10163622;29;20088;-67
2022/11/18 23:53:24;;;;;;;5.60;3.28;;;;;;;7.65;79.39;99496.97;10168832;29;20451;-66
2022/11/18 23:58:26;;;;;;;5.22;3.22;;;;;;;7.61;79.37;99492.16;10166788;29;20131;-66
